Muson — UGLB — position and weather

sailwx.info

Track history (hours):
 
Tides and Currents Weather Stations Pressure Air Temp Water Temp Dewpoint Dewpoint Depression Visibility Wind Speed Wind Dir Waves Ship Positions

Muson

Last reported at 2014-Aug-30 05:32 UTC. Time now 2014-Sep-02 19:13 UTC.
Position N 59°55' E 030°15'.

Length 180 m; draft 4.6 m.

Type: Tug. MMSI: 273444990.

Date/timePositionNaut miles runAvg speedWind from/ knotsBaromVisibWave heightAir tempDewpointWater temp
2014-Aug-30 05:32N 59°55' E 030°15'0 0.0
2014-Aug-29 07:10N 59°55' E 030°14'0 0.2
2014-Aug-29 05:32N 59°55' E 030°14'0 0.0
2014-Aug-29 04:31N 59°55' E 030°14'0 0.0
2014-Aug-29 03:32N 59°55' E 030°14'0 0.0
2014-Aug-29 02:33N 59°55' E 030°14'2 0.5
2014-Aug-28 23:33N 59°55' E 030°16'2 2.0
2014-Aug-28 22:33N 59°57' E 030°19'1 0.9
2014-Aug-28 21:33N 59°56' E 030°18'0 0.3
2014-Aug-28 20:33N 59°56' E 030°17'0 0.0
2014-Aug-28 07:33N 59°56' E 030°17'0 0.4
2014-Aug-28 06:34N 59°56' E 030°16'1 0.1
2014-Aug-27 09:20N 59°55' E 030°14'0 0.0
2014-Aug-26 21:29N 59°55' E 030°14'0 0.0
2014-Aug-26 19:04N 59°55' E 030°14'0 0.5
2014-Aug-26 18:33N 59°54' E 030°13'0 0.0
2014-Aug-26 08:28N 59°55' E 030°14'0 0.0
2014-Aug-26 07:33N 59°55' E 030°14'0 0.0
2014-Aug-26 06:33N 59°55' E 030°14'0 0.0
2014-Aug-26 05:32N 59°55' E 030°14'0 0.0
2014-Aug-26 04:28N 59°55' E 030°14'0 0.0
2014-Aug-26 02:11N 59°55' E 030°14'0 0.0
2014-Aug-26 01:28N 59°55' E 030°14'0 0.0
2014-Aug-26 00:31N 59°55' E 030°14'0 0.0
2014-Aug-25 23:31N 59°55' E 030°14'0 0.0
2014-Aug-25 22:32N 59°55' E 030°14'0 0.0
2014-Aug-25 21:33N 59°55' E 030°14'0 0.0
2014-Aug-25 20:24N 59°55' E 030°14'0 0.0
2014-Aug-25 19:28N 59°55' E 030°14'0 0.0
2014-Aug-25 18:27N 59°55' E 030°14'0 0.0
2014-Aug-25 15:32N 59°55' E 030°14'0 0.0
2014-Aug-25 10:33N 59°55' E 030°14'  
Track history (hours):
 
Tides and Currents Weather Stations Pressure Air Temp Water Temp Dewpoint Dewpoint Depression Visibility Wind Speed Wind Dir Waves Ship Positions

Muson

Last reported at 2014-Aug-30 05:32 UTC. Time now 2014-Sep-02 19:13 UTC.
Position N 59°55' E 030°15'.

Length 180 m; draft 4.6 m.

Type: Tug. MMSI: 273444990.

Date/timePositionNaut miles runAvg speedWind from/ knotsBaromVisibWave heightAir tempDewpointWater temp
2014-Aug-30 05:32N 59°55' E 030°15'0 0.0
2014-Aug-29 07:10N 59°55' E 030°14'0 0.2
2014-Aug-29 05:32N 59°55' E 030°14'0 0.0
2014-Aug-29 04:31N 59°55' E 030°14'0 0.0
2014-Aug-29 03:32N 59°55' E 030°14'0 0.0
2014-Aug-29 02:33N 59°55' E 030°14'2 0.5
2014-Aug-28 23:33N 59°55' E 030°16'2 2.0
2014-Aug-28 22:33N 59°57' E 030°19'1 0.9
2014-Aug-28 21:33N 59°56' E 030°18'0 0.3
2014-Aug-28 20:33N 59°56' E 030°17'0 0.0
2014-Aug-28 07:33N 59°56' E 030°17'0 0.4
2014-Aug-28 06:34N 59°56' E 030°16'1 0.1
2014-Aug-27 09:20N 59°55' E 030°14'0 0.0
2014-Aug-26 21:29N 59°55' E 030°14'0 0.0
2014-Aug-26 19:04N 59°55' E 030°14'0 0.5
2014-Aug-26 18:33N 59°54' E 030°13'0 0.0
2014-Aug-26 08:28N 59°55' E 030°14'0 0.0
2014-Aug-26 07:33N 59°55' E 030°14'0 0.0
2014-Aug-26 06:33N 59°55' E 030°14'0 0.0
2014-Aug-26 05:32N 59°55' E 030°14'0 0.0
2014-Aug-26 04:28N 59°55' E 030°14'0 0.0
2014-Aug-26 02:11N 59°55' E 030°14'0 0.0
2014-Aug-26 01:28N 59°55' E 030°14'0 0.0
2014-Aug-26 00:31N 59°55' E 030°14'0 0.0
2014-Aug-25 23:31N 59°55' E 030°14'0 0.0
2014-Aug-25 22:32N 59°55' E 030°14'0 0.0
2014-Aug-25 21:33N 59°55' E 030°14'0 0.0
2014-Aug-25 20:24N 59°55' E 030°14'0 0.0
2014-Aug-25 19:28N 59°55' E 030°14'0 0.0
2014-Aug-25 18:27N 59°55' E 030°14'0 0.0
2014-Aug-25 15:32N 59°55' E 030°14'0 0.0
2014-Aug-25 10:33N 59°55' E 030°14'  

Dump ship's entire track history